sensor_id;sensor_type;location;lat;lon;timestamp;P1;durP1;ratioP1;P2;durP2;ratioP2
20527;SDS011;23612;50.894;10.700;2023-07-20T00:00:48;15.10;;;6.80;;
20527;SDS011;23612;50.894;10.700;2023-07-20T00:03:15;9.90;;;6.57;;
20527;SDS011;23612;50.894;10.700;2023-07-20T00:05:44;9.50;;;6.90;;
20527;SDS011;23612;50.894;10.700;2023-07-20T00:08:10;11.43;;;5.82;;
20527;SDS011;23612;50.894;10.700;2023-07-20T00:10:36;9.68;;;6.22;;
20527;SDS011;23612;50.894;10.700;2023-07-20T00:13:02;9.75;;;6.32;;
20527;SDS011;23612;50.894;10.700;2023-07-20T00:15:27;12.25;;;6.07;;
20527;SDS011;23612;50.894;10.700;2023-07-20T00:17:53;8.52;;;6.32;;
20527;SDS011;23612;50.894;10.700;2023-07-20T00:20:18;10.88;;;6.35;;
20527;SDS011;23612;50.894;10.700;2023-07-20T00:22:44;8.75;;;6.20;;
20527;SDS011;23612;50.894;10.700;2023-07-20T00:25:09;12.48;;;6.50;;
20527;SDS011;23612;50.894;10.700;2023-07-20T00:27:36;18.27;;;6.80;;
20527;SDS011;23612;50.894;10.700;2023-07-20T00:30:03;9.40;;;6.55;;
20527;SDS011;23612;50.894;10.700;2023-07-20T00:32:29;11.32;;;6.53;;
20527;SDS011;23612;50.894;10.700;2023-07-20T00:34:54;10.88;;;5.82;;
20527;SDS011;23612;50.894;10.700;2023-07-20T00:37:20;8.35;;;5.97;;
20527;SDS011;23612;50.894;10.700;2023-07-20T00:39:46;11.50;;;6.13;;
20527;SDS011;23612;50.894;10.700;2023-07-20T00:42:11;13.63;;;6.65;;
20527;SDS011;23612;50.894;10.700;2023-07-20T00:44:37;17.25;;;6.68;;
20527;SDS011;23612;50.894;10.700;2023-07-20T00:47:02;8.57;;;6.15;;
20527;SDS011;23612;50.894;10.700;2023-07-20T00:49:28;15.48;;;6.13;;
20527;SDS011;23612;50.894;10.700;2023-07-20T00:51:54;16.98;;;6.60;;
20527;SDS011;23612;50.894;10.700;2023-07-20T00:54:20;16.88;;;6.72;;
20527;SDS011;23612;50.894;10.700;2023-07-20T00:56:46;15.32;;;6.38;;
20527;SDS011;23612;50.894;10.700;2023-07-20T00:59:12;12.20;;;6.68;;
20527;SDS011;23612;50.894;10.700;2023-07-20T01:01:38;16.88;;;6.07;;
20527;SDS011;23612;50.894;10.700;2023-07-20T01:04:04;9.82;;;6.43;;
20527;SDS011;23612;50.894;10.700;2023-07-20T01:06:38;14.65;;;5.60;;
20527;SDS011;23612;50.894;10.700;2023-07-20T01:09:17;25.85;;;7.60;;
20527;SDS011;23612;50.894;10.700;2023-07-20T01:14:32;12.43;;;5.63;;
20527;SDS011;23612;50.894;10.700;2023-07-20T01:16:59;11.85;;;5.65;;
20527;SDS011;23612;50.894;10.700;2023-07-20T01:19:24;17.10;;;5.97;;
20527;SDS011;23612;50.894;10.700;2023-07-20T01:22:40;14.98;;;5.78;;
20527;SDS011;23612;50.894;10.700;2023-07-20T01:30:43;18.45;;;6.28;;
20527;SDS011;23612;50.894;10.700;2023-07-20T01:33:20;15.80;;;6.07;;
20527;SDS011;23612;50.894;10.700;2023-07-20T01:35:50;10.10;;;6.30;;
20527;SDS011;23612;50.894;10.700;2023-07-20T01:38:25;16.45;;;6.28;;
20527;SDS011;23612;50.894;10.700;2023-07-20T01:40:51;18.73;;;6.32;;
20527;SDS011;23612;50.894;10.700;2023-07-20T01:43:17;23.08;;;7.10;;
20527;SDS011;23612;50.894;10.700;2023-07-20T01:45:43;20.88;;;7.32;;
20527;SDS011;23612;50.894;10.700;2023-07-20T01:48:09;17.27;;;7.82;;
20527;SDS011;23612;50.894;10.700;2023-07-20T01:50:34;17.73;;;7.70;;
20527;SDS011;23612;50.894;10.700;2023-07-20T01:53:00;16.92;;;8.13;;
20527;SDS011;23612;50.894;10.700;2023-07-20T01:55:26;10.52;;;6.63;;
20527;SDS011;23612;50.894;10.700;2023-07-20T01:57:52;17.70;;;7.05;;
20527;SDS011;23612;50.894;10.700;2023-07-20T02:00:18;15.98;;;7.45;;
20527;SDS011;23612;50.894;10.700;2023-07-20T02:02:46;20.05;;;6.90;;
20527;SDS011;23612;50.894;10.700;2023-07-20T02:05:12;19.08;;;6.97;;
20527;SDS011;23612;50.894;10.700;2023-07-20T02:07:37;22.77;;;7.32;;
20527;SDS011;23612;50.894;10.700;2023-07-20T02:10:03;15.05;;;6.90;;
20527;SDS011;23612;50.894;10.700;2023-07-20T02:12:29;20.17;;;7.22;;
20527;SDS011;23612;50.894;10.700;2023-07-20T02:14:54;23.83;;;7.50;;
20527;SDS011;23612;50.894;10.700;2023-07-20T02:17:20;24.60;;;7.22;;
20527;SDS011;23612;50.894;10.700;2023-07-20T02:19:46;17.73;;;6.60;;
20527;SDS011;23612;50.894;10.700;2023-07-20T02:22:14;17.13;;;6.97;;
20527;SDS011;23612;50.894;10.700;2023-07-20T02:24:40;18.42;;;7.03;;
20527;SDS011;23612;50.894;10.700;2023-07-20T02:27:05;12.60;;;6.78;;
20527;SDS011;23612;50.894;10.700;2023-07-20T02:29:31;22.45;;;7.13;;
20527;SDS011;23612;50.894;10.700;2023-07-20T02:31:57;10.43;;;7.47;;
20527;SDS011;23612;50.894;10.700;2023-07-20T02:34:23;20.45;;;7.97;;
20527;SDS011;23612;50.894;10.700;2023-07-20T02:36:48;17.83;;;7.93;;
20527;SDS011;23612;50.894;10.700;2023-07-20T02:39:14;14.95;;;7.18;;
20527;SDS011;23612;50.894;10.700;2023-07-20T02:41:40;22.98;;;7.07;;
20527;SDS011;23612;50.894;10.700;2023-07-20T02:44:06;14.43;;;7.43;;
20527;SDS011;23612;50.894;10.700;2023-07-20T02:46:32;20.17;;;7.35;;
20527;SDS011;23612;50.894;10.700;2023-07-20T02:48:57;23.00;;;7.28;;
20527;SDS011;23612;50.894;10.700;2023-07-20T02:51:23;20.38;;;7.20;;
20527;SDS011;23612;50.894;10.700;2023-07-20T02:53:48;23.05;;;8.13;;
20527;SDS011;23612;50.894;10.700;2023-07-20T02:56:14;21.70;;;7.65;;
20527;SDS011;23612;50.894;10.700;2023-07-20T02:58:41;16.77;;;7.40;;
20527;SDS011;23612;50.894;10.700;2023-07-20T03:01:10;18.70;;;6.88;;
20527;SDS011;23612;50.894;10.700;2023-07-20T03:03:37;15.52;;;7.53;;
20527;SDS011;23612;50.894;10.700;2023-07-20T03:06:03;18.95;;;6.90;;
20527;SDS011;23612;50.894;10.700;2023-07-20T03:08:33;20.88;;;8.07;;
20527;SDS011;23612;50.894;10.700;2023-07-20T03:11:00;22.88;;;7.93;;
20527;SDS011;23612;50.894;10.700;2023-07-20T03:13:26;21.95;;;7.32;;
20527;SDS011;23612;50.894;10.700;2023-07-20T03:15:52;23.75;;;7.03;;
20527;SDS011;23612;50.894;10.700;2023-07-20T03:18:18;18.08;;;7.32;;
20527;SDS011;23612;50.894;10.700;2023-07-20T03:20:43;29.05;;;7.40;;
20527;SDS011;23612;50.894;10.700;2023-07-20T03:23:09;20.92;;;7.68;;
20527;SDS011;23612;50.894;10.700;2023-07-20T03:25:35;20.05;;;6.82;;
20527;SDS011;23612;50.894;10.700;2023-07-20T03:28:02;23.08;;;6.90;;
20527;SDS011;23612;50.894;10.700;2023-07-20T03:30:28;31.48;;;7.68;;
20527;SDS011;23612;50.894;10.700;2023-07-20T03:32:53;25.20;;;6.50;;
20527;SDS011;23612;50.894;10.700;2023-07-20T03:35:19;23.23;;;6.45;;
20527;SDS011;23612;50.894;10.700;2023-07-20T03:37:44;22.20;;;6.75;;
20527;SDS011;23612;50.894;10.700;2023-07-20T03:40:10;22.42;;;7.20;;
20527;SDS011;23612;50.894;10.700;2023-07-20T03:42:36;31.92;;;6.68;;
20527;SDS011;23612;50.894;10.700;2023-07-20T03:45:01;18.25;;;6.55;;
20527;SDS011;23612;50.894;10.700;2023-07-20T03:47:28;23.45;;;6.07;;
20527;SDS011;23612;50.894;10.700;2023-07-20T03:49:53;28.30;;;6.53;;
20527;SDS011;23612;50.894;10.700;2023-07-20T03:52:19;27.30;;;7.53;;
20527;SDS011;23612;50.894;10.700;2023-07-20T03:54:44;24.40;;;6.40;;
20527;SDS011;23612;50.894;10.700;2023-07-20T03:57:10;23.70;;;6.43;;
20527;SDS011;23612;50.894;10.700;2023-07-20T03:59:37;24.85;;;7.28;;
20527;SDS011;23612;50.894;10.700;2023-07-20T04:02:02;24.88;;;6.40;;
20527;SDS011;23612;50.894;10.700;2023-07-20T04:04:30;36.67;;;7.55;;
20527;SDS011;23612;50.894;10.700;2023-07-20T04:06:56;19.27;;;6.28;;
20527;SDS011;23612;50.894;10.700;2023-07-20T04:09:21;27.13;;;6.45;;
20527;SDS011;23612;50.894;10.700;2023-07-20T04:11:47;22.50;;;6.43;;
20527;SDS011;23612;50.894;10.700;2023-07-20T04:14:12;25.92;;;6.75;;
20527;SDS011;23612;50.894;10.700;2023-07-20T04:16:38;31.17;;;6.30;;
20527;SDS011;23612;50.894;10.700;2023-07-20T04:19:03;18.02;;;6.05;;
20527;SDS011;23612;50.894;10.700;2023-07-20T04:21:29;24.52;;;7.90;;
20527;SDS011;23612;50.894;10.700;2023-07-20T04:23:54;21.00;;;7.40;;
20527;SDS011;23612;50.894;10.700;2023-07-20T04:26:20;23.63;;;8.82;;
20527;SDS011;23612;50.894;10.700;2023-07-20T04:28:45;17.35;;;8.60;;
20527;SDS011;23612;50.894;10.700;2023-07-20T04:31:13;20.38;;;8.90;;
20527;SDS011;23612;50.894;10.700;2023-07-20T04:33:39;24.80;;;9.40;;
20527;SDS011;23612;50.894;10.700;2023-07-20T04:36:05;23.83;;;8.77;;
20527;SDS011;23612;50.894;10.700;2023-07-20T04:38:32;19.98;;;9.05;;
20527;SDS011;23612;50.894;10.700;2023-07-20T04:40:58;22.13;;;9.60;;
20527;SDS011;23612;50.894;10.700;2023-07-20T04:43:23;19.30;;;8.82;;
20527;SDS011;23612;50.894;10.700;2023-07-20T04:45:49;19.90;;;8.88;;
20527;SDS011;23612;50.894;10.700;2023-07-20T04:48:16;23.63;;;9.60;;
20527;SDS011;23612;50.894;10.700;2023-07-20T04:50:42;28.08;;;10.57;;
20527;SDS011;23612;50.894;10.700;2023-07-20T04:53:12;21.25;;;8.45;;
20527;SDS011;23612;50.894;10.700;2023-07-20T04:55:38;26.58;;;8.25;;
20527;SDS011;23612;50.894;10.700;2023-07-20T04:58:05;20.90;;;7.18;;
20527;SDS011;23612;50.894;10.700;2023-07-20T05:00:32;21.17;;;8.25;;
20527;SDS011;23612;50.894;10.700;2023-07-20T05:02:58;25.02;;;8.35;;
20527;SDS011;23612;50.894;10.700;2023-07-20T05:05:24;17.70;;;7.43;;
20527;SDS011;23612;50.894;10.700;2023-07-20T05:07:49;19.85;;;7.40;;
20527;SDS011;23612;50.894;10.700;2023-07-20T05:10:15;16.48;;;7.30;;
20527;SDS011;23612;50.894;10.700;2023-07-20T05:12:41;14.80;;;7.40;;
20527;SDS011;23612;50.894;10.700;2023-07-20T05:15:06;13.82;;;6.93;;
20527;SDS011;23612;50.894;10.700;2023-07-20T05:17:32;50.15;;;8.45;;
20527;SDS011;23612;50.894;10.700;2023-07-20T05:19:58;22.08;;;6.68;;
20527;SDS011;23612;50.894;10.700;2023-07-20T05:22:23;15.27;;;7.47;;
20527;SDS011;23612;50.894;10.700;2023-07-20T05:24:49;18.00;;;6.32;;
20527;SDS011;23612;50.894;10.700;2023-07-20T05:27:15;17.92;;;6.78;;
20527;SDS011;23612;50.894;10.700;2023-07-20T05:29:44;14.23;;;6.07;;
20527;SDS011;23612;50.894;10.700;2023-07-20T05:32:10;7.97;;;5.38;;
20527;SDS011;23612;50.894;10.700;2023-07-20T05:34:36;14.75;;;5.55;;
20527;SDS011;23612;50.894;10.700;2023-07-20T05:37:01;11.27;;;5.65;;
20527;SDS011;23612;50.894;10.700;2023-07-20T05:39:27;13.50;;;6.32;;
20527;SDS011;23612;50.894;10.700;2023-07-20T05:41:52;10.95;;;5.18;;
20527;SDS011;23612;50.894;10.700;2023-07-20T05:44:18;14.93;;;5.40;;
20527;SDS011;23612;50.894;10.700;2023-07-20T05:46:43;7.88;;;5.45;;
20527;SDS011;23612;50.894;10.700;2023-07-20T05:49:09;9.82;;;4.55;;
20527;SDS011;23612;50.894;10.700;2023-07-20T05:51:35;7.38;;;5.07;;
20527;SDS011;23612;50.894;10.700;2023-07-20T05:54:01;13.35;;;6.32;;
20527;SDS011;23612;50.894;10.700;2023-07-20T05:56:26;6.75;;;5.45;;
20527;SDS011;23612;50.894;10.700;2023-07-20T05:58:52;8.57;;;4.65;;
20527;SDS011;23612;50.894;10.700;2023-07-20T06:01:17;9.25;;;4.07;;
20527;SDS011;23612;50.894;10.700;2023-07-20T06:03:44;7.63;;;4.22;;
20527;SDS011;23612;50.894;10.700;2023-07-20T06:06:09;9.32;;;4.55;;
20527;SDS011;23612;50.894;10.700;2023-07-20T06:08:36;8.77;;;3.95;;
20527;SDS011;23612;50.894;10.700;2023-07-20T06:11:02;7.78;;;4.63;;
20527;SDS011;23612;50.894;10.700;2023-07-20T06:13:28;5.00;;;3.80;;
20527;SDS011;23612;50.894;10.700;2023-07-20T06:15:54;8.25;;;4.55;;
20527;SDS011;23612;50.894;10.700;2023-07-20T06:18:20;6.03;;;3.97;;
20527;SDS011;23612;50.894;10.700;2023-07-20T06:20:51;12.52;;;4.75;;
20527;SDS011;23612;50.894;10.700;2023-07-20T06:23:19;7.97;;;4.10;;
20527;SDS011;23612;50.894;10.700;2023-07-20T06:25:45;3.92;;;2.95;;
20527;SDS011;23612;50.894;10.700;2023-07-20T06:28:11;5.53;;;3.28;;
20527;SDS011;23612;50.894;10.700;2023-07-20T06:30:36;7.40;;;3.10;;
20527;SDS011;23612;50.894;10.700;2023-07-20T06:33:02;7.63;;;3.20;;
20527;SDS011;23612;50.894;10.700;2023-07-20T06:35:27;5.35;;;4.00;;
20527;SDS011;23612;50.894;10.700;2023-07-20T06:37:53;4.10;;;3.70;;
20527;SDS011;23612;50.894;10.700;2023-07-20T06:40:19;7.47;;;2.97;;
20527;SDS011;23612;50.894;10.700;2023-07-20T06:42:44;4.82;;;2.88;;
20527;SDS011;23612;50.894;10.700;2023-07-20T06:45:10;3.08;;;2.70;;
20527;SDS011;23612;50.894;10.700;2023-07-20T06:47:38;6.70;;;3.08;;
20527;SDS011;23612;50.894;10.700;2023-07-20T06:50:05;4.03;;;3.17;;
20527;SDS011;23612;50.894;10.700;2023-07-20T06:52:31;3.67;;;3.03;;
20527;SDS011;23612;50.894;10.700;2023-07-20T06:54:57;4.18;;;3.40;;
20527;SDS011;23612;50.894;10.700;2023-07-20T06:57:22;5.03;;;3.15;;
20527;SDS011;23612;50.894;10.700;2023-07-20T06:59:48;4.45;;;2.83;;
20527;SDS011;23612;50.894;10.700;2023-07-20T07:02:14;5.95;;;3.35;;
20527;SDS011;23612;50.894;10.700;2023-07-20T07:04:39;4.15;;;3.22;;
20527;SDS011;23612;50.894;10.700;2023-07-20T07:07:05;6.07;;;2.90;;
20527;SDS011;23612;50.894;10.700;2023-07-20T07:09:30;5.38;;;3.50;;
20527;SDS011;23612;50.894;10.700;2023-07-20T07:11:56;6.05;;;3.65;;
20527;SDS011;23612;50.894;10.700;2023-07-20T07:14:22;4.40;;;3.53;;
20527;SDS011;23612;50.894;10.700;2023-07-20T07:16:47;3.75;;;3.17;;
20527;SDS011;23612;50.894;10.700;2023-07-20T07:19:13;8.00;;;3.22;;
20527;SDS011;23612;50.894;10.700;2023-07-20T07:21:38;5.63;;;3.30;;
20527;SDS011;23612;50.894;10.700;2023-07-20T07:24:05;4.00;;;3.63;;
20527;SDS011;23612;50.894;10.700;2023-07-20T07:26:32;9.15;;;3.63;;
20527;SDS011;23612;50.894;10.700;2023-07-20T07:28:58;6.05;;;3.90;;
20527;SDS011;23612;50.894;10.700;2023-07-20T07:31:24;3.50;;;3.20;;
20527;SDS011;23612;50.894;10.700;2023-07-20T07:33:50;4.47;;;3.72;;
20527;SDS011;23612;50.894;10.700;2023-07-20T07:36:16;5.50;;;3.60;;
20527;SDS011;23612;50.894;10.700;2023-07-20T07:38:41;5.90;;;3.95;;
20527;SDS011;23612;50.894;10.700;2023-07-20T07:41:07;4.25;;;3.53;;
20527;SDS011;23612;50.894;10.700;2023-07-20T07:43:33;5.30;;;3.65;;
20527;SDS011;23612;50.894;10.700;2023-07-20T07:46:00;8.07;;;3.35;;
20527;SDS011;23612;50.894;10.700;2023-07-20T07:48:25;5.53;;;3.38;;
20527;SDS011;23612;50.894;10.700;2023-07-20T07:50:51;7.40;;;3.80;;
20527;SDS011;23612;50.894;10.700;2023-07-20T07:53:18;5.70;;;3.28;;
20527;SDS011;23612;50.894;10.700;2023-07-20T07:55:45;4.35;;;3.67;;
20527;SDS011;23612;50.894;10.700;2023-07-20T07:58:12;4.53;;;3.53;;
20527;SDS011;23612;50.894;10.700;2023-07-20T08:00:38;5.45;;;3.75;;
20527;SDS011;23612;50.894;10.700;2023-07-20T08:03:05;3.70;;;3.20;;
20527;SDS011;23612;50.894;10.700;2023-07-20T08:05:31;3.45;;;3.15;;
20527;SDS011;23612;50.894;10.700;2023-07-20T08:07:56;4.40;;;2.85;;
20527;SDS011;23612;50.894;10.700;2023-07-20T08:10:22;2.60;;;2.47;;
20527;SDS011;23612;50.894;10.700;2023-07-20T08:12:48;2.72;;;2.50;;
20527;SDS011;23612;50.894;10.700;2023-07-20T08:15:13;3.90;;;2.60;;
20527;SDS011;23612;50.894;10.700;2023-07-20T08:17:40;5.28;;;2.65;;
20527;SDS011;23612;50.894;10.700;2023-07-20T08:20:07;3.45;;;2.40;;
20527;SDS011;23612;50.894;10.700;2023-07-20T08:22:36;4.10;;;2.60;;
20527;SDS011;23612;50.894;10.700;2023-07-20T08:25:02;3.70;;;2.42;;
20527;SDS011;23612;50.894;10.700;2023-07-20T08:27:28;2.80;;;2.30;;
20527;SDS011;23612;50.894;10.700;2023-07-20T08:29:54;3.30;;;2.55;;
20527;SDS011;23612;50.894;10.700;2023-07-20T08:32:19;4.20;;;2.33;;
20527;SDS011;23612;50.894;10.700;2023-07-20T08:34:45;3.17;;;2.15;;
20527;SDS011;23612;50.894;10.700;2023-07-20T08:37:10;3.47;;;2.45;;
20527;SDS011;23612;50.894;10.700;2023-07-20T08:39:36;2.63;;;2.40;;
20527;SDS011;23612;50.894;10.700;2023-07-20T08:42:01;3.22;;;2.67;;
20527;SDS011;23612;50.894;10.700;2023-07-20T08:44:31;4.03;;;2.70;;
20527;SDS011;23612;50.894;10.700;2023-07-20T08:46:58;3.50;;;2.78;;
20527;SDS011;23612;50.894;10.700;2023-07-20T08:49:27;3.50;;;3.15;;
20527;SDS011;23612;50.894;10.700;2023-07-20T08:51:53;3.80;;;3.33;;
20527;SDS011;23612;50.894;10.700;2023-07-20T08:54:18;6.65;;;3.40;;
20527;SDS011;23612;50.894;10.700;2023-07-20T08:56:45;2.92;;;2.40;;
20527;SDS011;23612;50.894;10.700;2023-07-20T08:59:12;3.40;;;3.10;;
20527;SDS011;23612;50.894;10.700;2023-07-20T09:01:41;3.30;;;2.90;;
20527;SDS011;23612;50.894;10.700;2023-07-20T09:04:08;5.47;;;2.70;;
20527;SDS011;23612;50.894;10.700;2023-07-20T09:06:34;3.00;;;2.70;;
20527;SDS011;23612;50.894;10.700;2023-07-20T09:09:00;4.10;;;3.25;;
20527;SDS011;23612;50.894;10.700;2023-07-20T09:11:25;3.00;;;2.75;;
20527;SDS011;23612;50.894;10.700;2023-07-20T09:14:06;8.80;;;3.45;;
20527;SDS011;23612;50.894;10.700;2023-07-20T09:16:46;3.85;;;2.85;;
20527;SDS011;23612;50.894;10.700;2023-07-20T09:19:17;5.38;;;3.70;;
20527;SDS011;23612;50.894;10.700;2023-07-20T09:21:49;3.78;;;2.70;;
20527;SDS011;23612;50.894;10.700;2023-07-20T09:24:17;3.45;;;2.85;;
20527;SDS011;23612;50.894;10.700;2023-07-20T09:26:43;4.68;;;2.90;;
20527;SDS011;23612;50.894;10.700;2023-07-20T09:29:10;13.07;;;2.70;;
20527;SDS011;23612;50.894;10.700;2023-07-20T09:31:36;5.03;;;3.00;;
20527;SDS011;23612;50.894;10.700;2023-07-20T09:34:02;3.97;;;3.00;;
20527;SDS011;23612;50.894;10.700;2023-07-20T09:36:31;4.18;;;3.00;;
20527;SDS011;23612;50.894;10.700;2023-07-20T09:38:59;4.13;;;3.08;;
20527;SDS011;23612;50.894;10.700;2023-07-20T09:41:25;3.40;;;2.83;;
20527;SDS011;23612;50.894;10.700;2023-07-20T09:43:51;4.82;;;3.15;;
20527;SDS011;23612;50.894;10.700;2023-07-20T09:46:17;4.60;;;2.78;;
20527;SDS011;23612;50.894;10.700;2023-07-20T09:48:51;3.78;;;2.55;;
20527;SDS011;23612;50.894;10.700;2023-07-20T09:51:18;3.50;;;2.72;;
20527;SDS011;23612;50.894;10.700;2023-07-20T09:53:48;3.70;;;2.55;;
20527;SDS011;23612;50.894;10.700;2023-07-20T09:56:14;3.60;;;3.00;;
20527;SDS011;23612;50.894;10.700;2023-07-20T09:58:42;3.78;;;2.90;;
20527;SDS011;23612;50.894;10.700;2023-07-20T10:01:11;3.10;;;2.63;;
20527;SDS011;23612;50.894;10.700;2023-07-20T10:03:39;5.25;;;2.70;;
20527;SDS011;23612;50.894;10.700;2023-07-20T10:06:08;4.97;;;2.25;;
20527;SDS011;23612;50.894;10.700;2023-07-20T10:08:41;7.82;;;2.90;;
20527;SDS011;23612;50.894;10.700;2023-07-20T10:11:07;7.95;;;2.22;;
20527;SDS011;23612;50.894;10.700;2023-07-20T10:13:37;3.83;;;2.22;;
20527;SDS011;23612;50.894;10.700;2023-07-20T10:16:10;5.78;;;2.95;;
20527;SDS011;23612;50.894;10.700;2023-07-20T10:19:01;3.17;;;2.53;;
20527;SDS011;23612;50.894;10.700;2023-07-20T10:21:37;8.02;;;2.58;;
20527;SDS011;23612;50.894;10.700;2023-07-20T10:24:07;10.15;;;2.50;;
20527;SDS011;23612;50.894;10.700;2023-07-20T10:26:34;4.85;;;2.05;;
20527;SDS011;23612;50.894;10.700;2023-07-20T10:29:01;6.40;;;2.17;;
20527;SDS011;23612;50.894;10.700;2023-07-20T10:31:28;9.43;;;2.08;;
20527;SDS011;23612;50.894;10.700;2023-07-20T10:33:55;3.33;;;1.85;;
20527;SDS011;23612;50.894;10.700;2023-07-20T10:36:25;6.00;;;1.80;;
20527;SDS011;23612;50.894;10.700;2023-07-20T10:38:55;3.63;;;1.52;;
20527;SDS011;23612;50.894;10.700;2023-07-20T10:43:49;2.60;;;2.08;;
20527;SDS011;23612;50.894;10.700;2023-07-20T10:46:33;2.63;;;2.13;;
20527;SDS011;23612;50.894;10.700;2023-07-20T10:49:02;2.40;;;2.30;;
20527;SDS011;23612;50.894;10.700;2023-07-20T10:51:29;2.60;;;2.40;;
20527;SDS011;23612;50.894;10.700;2023-07-20T10:53:57;5.13;;;2.95;;
20527;SDS011;23612;50.894;10.700;2023-07-20T10:56:25;3.58;;;2.90;;
20527;SDS011;23612;50.894;10.700;2023-07-20T10:58:57;5.75;;;3.65;;
20527;SDS011;23612;50.894;10.700;2023-07-20T11:01:27;5.15;;;3.55;;
20527;SDS011;23612;50.894;10.700;2023-07-20T11:03:57;4.95;;;3.70;;
20527;SDS011;23612;50.894;10.700;2023-07-20T11:09:04;4.38;;;3.95;;
20527;SDS011;23612;50.894;10.700;2023-07-20T11:11:39;4.00;;;3.60;;
20527;SDS011;23612;50.894;10.700;2023-07-20T11:14:06;3.90;;;3.47;;
20527;SDS011;23612;50.894;10.700;2023-07-20T11:16:34;3.80;;;3.40;;
20527;SDS011;23612;50.894;10.700;2023-07-20T11:19:00;4.10;;;3.20;;
20527;SDS011;23612;50.894;10.700;2023-07-20T11:21:25;4.10;;;3.35;;
20527;SDS011;23612;50.894;10.700;2023-07-20T11:23:52;5.47;;;3.28;;
20527;SDS011;23612;50.894;10.700;2023-07-20T11:26:18;6.78;;;3.85;;
20527;SDS011;23612;50.894;10.700;2023-07-20T11:28:48;4.18;;;3.88;;
20527;SDS011;23612;50.894;10.700;2023-07-20T11:31:17;3.70;;;3.40;;
20527;SDS011;23612;50.894;10.700;2023-07-20T11:33:43;3.42;;;3.20;;
20527;SDS011;23612;50.894;10.700;2023-07-20T11:36:09;5.45;;;3.55;;
20527;SDS011;23612;50.894;10.700;2023-07-20T11:38:35;3.80;;;3.47;;
20527;SDS011;23612;50.894;10.700;2023-07-20T11:41:02;3.80;;;3.40;;
20527;SDS011;23612;50.894;10.700;2023-07-20T11:43:28;4.22;;;3.83;;
20527;SDS011;23612;50.894;10.700;2023-07-20T11:45:55;4.13;;;3.58;;
20527;SDS011;23612;50.894;10.700;2023-07-20T11:48:21;3.70;;;3.40;;
20527;SDS011;23612;50.894;10.700;2023-07-20T11:50:47;4.15;;;3.65;;
20527;SDS011;23612;50.894;10.700;2023-07-20T11:53:13;4.07;;;3.67;;
20527;SDS011;23612;50.894;10.700;2023-07-20T11:55:39;3.67;;;3.38;;
20527;SDS011;23612;50.894;10.700;2023-07-20T11:58:06;4.00;;;3.60;;
20527;SDS011;23612;50.894;10.700;2023-07-20T12:00:33;3.45;;;3.20;;
20527;SDS011;23612;50.894;10.700;2023-07-20T12:03:00;3.03;;;2.83;;
20527;SDS011;23612;50.894;10.700;2023-07-20T12:05:25;6.18;;;3.00;;
20527;SDS011;23612;50.894;10.700;2023-07-20T12:07:51;5.13;;;2.70;;
20527;SDS011;23612;50.894;10.700;2023-07-20T12:10:23;3.80;;;2.65;;
20527;SDS011;23612;50.894;10.700;2023-07-20T12:12:51;2.63;;;2.40;;
20527;SDS011;23612;50.894;10.700;2023-07-20T12:15:23;2.40;;;2.20;;
20527;SDS011;23612;50.894;10.700;2023-07-20T12:17:55;3.30;;;2.22;;
20527;SDS011;23612;50.894;10.700;2023-07-20T12:20:25;2.65;;;1.90;;
20527;SDS011;23612;50.894;10.700;2023-07-20T12:23:12;2.53;;;2.33;;
20527;SDS011;23612;50.894;10.700;2023-07-20T12:25:42;2.40;;;2.20;;
20527;SDS011;23612;50.894;10.700;2023-07-20T12:28:13;3.35;;;2.17;;
20527;SDS011;23612;50.894;10.700;2023-07-20T12:30:43;2.80;;;2.60;;
20527;SDS011;23612;50.894;10.700;2023-07-20T12:33:09;2.67;;;2.47;;
20527;SDS011;23612;50.894;10.700;2023-07-20T12:35:35;2.67;;;2.40;;
20527;SDS011;23612;50.894;10.700;2023-07-20T12:38:00;2.83;;;2.20;;
20527;SDS011;23612;50.894;10.700;2023-07-20T12:40:26;2.47;;;2.28;;
20527;SDS011;23612;50.894;10.700;2023-07-20T12:42:52;2.20;;;2.03;;
20527;SDS011;23612;50.894;10.700;2023-07-20T12:45:18;2.13;;;2.03;;
20527;SDS011;23612;50.894;10.700;2023-07-20T12:47:43;1.85;;;1.58;;
20527;SDS011;23612;50.894;10.700;2023-07-20T12:50:09;1.95;;;1.80;;
20527;SDS011;23612;50.894;10.700;2023-07-20T12:52:36;2.30;;;2.10;;
20527;SDS011;23612;50.894;10.700;2023-07-20T12:55:03;2.55;;;2.35;;
20527;SDS011;23612;50.894;10.700;2023-07-20T12:57:30;2.95;;;2.50;;
20527;SDS011;23612;50.894;10.700;2023-07-20T12:59:55;2.60;;;2.40;;
20527;SDS011;23612;50.894;10.700;2023-07-20T13:02:21;2.80;;;2.60;;
20527;SDS011;23612;50.894;10.700;2023-07-20T13:04:46;3.03;;;2.83;;
20527;SDS011;23612;50.894;10.700;2023-07-20T13:07:12;4.53;;;3.03;;
20527;SDS011;23612;50.894;10.700;2023-07-20T13:09:37;4.60;;;2.38;;
20527;SDS011;23612;50.894;10.700;2023-07-20T13:12:03;3.08;;;2.78;;
20527;SDS011;23612;50.894;10.700;2023-07-20T13:14:28;4.05;;;3.75;;
20527;SDS011;23612;50.894;10.700;2023-07-20T13:16:57;5.25;;;3.78;;
20527;SDS011;23612;50.894;10.700;2023-07-20T13:19:22;4.15;;;3.75;;
20527;SDS011;23612;50.894;10.700;2023-07-20T13:21:48;7.65;;;3.42;;
20527;SDS011;23612;50.894;10.700;2023-07-20T13:24:14;3.75;;;3.35;;
20527;SDS011;23612;50.894;10.700;2023-07-20T13:26:40;3.60;;;3.30;;
20527;SDS011;23612;50.894;10.700;2023-07-20T13:29:06;3.47;;;3.17;;
20527;SDS011;23612;50.894;10.700;2023-07-20T13:31:31;4.00;;;3.10;;
20527;SDS011;23612;50.894;10.700;2023-07-20T13:33:57;3.50;;;2.65;;
20527;SDS011;23612;50.894;10.700;2023-07-20T13:36:23;3.40;;;3.10;;
20527;SDS011;23612;50.894;10.700;2023-07-20T13:38:49;3.35;;;2.38;;
20527;SDS011;23612;50.894;10.700;2023-07-20T13:41:14;3.38;;;2.10;;
20527;SDS011;23612;50.894;10.700;2023-07-20T13:43:41;3.28;;;2.95;;
20527;SDS011;23612;50.894;10.700;2023-07-20T13:46:06;3.00;;;2.78;;
20527;SDS011;23612;50.894;10.700;2023-07-20T13:48:32;2.90;;;2.70;;
20527;SDS011;23612;50.894;10.700;2023-07-20T13:50:57;5.05;;;3.10;;
20527;SDS011;23612;50.894;10.700;2023-07-20T13:53:23;3.78;;;3.13;;
20527;SDS011;23612;50.894;10.700;2023-07-20T13:55:49;3.55;;;3.25;;
20527;SDS011;23612;50.894;10.700;2023-07-20T13:58:14;3.38;;;3.08;;
20527;SDS011;23612;50.894;10.700;2023-07-20T14:00:40;3.95;;;2.63;;
20527;SDS011;23612;50.894;10.700;2023-07-20T14:03:06;2.80;;;2.60;;
20527;SDS011;23612;50.894;10.700;2023-07-20T14:05:31;3.42;;;2.13;;
20527;SDS011;23612;50.894;10.700;2023-07-20T14:07:57;2.30;;;2.20;;
20527;SDS011;23612;50.894;10.700;2023-07-20T14:10:22;2.10;;;1.90;;
20527;SDS011;23612;50.894;10.700;2023-07-20T14:12:48;3.30;;;2.30;;
20527;SDS011;23612;50.894;10.700;2023-07-20T14:15:13;2.17;;;2.08;;
20527;SDS011;23612;50.894;10.700;2023-07-20T14:17:39;4.20;;;2.55;;
20527;SDS011;23612;50.894;10.700;2023-07-20T14:20:04;3.05;;;2.15;;
20527;SDS011;23612;50.894;10.700;2023-07-20T14:22:31;2.63;;;2.33;;
20527;SDS011;23612;50.894;10.700;2023-07-20T14:24:57;3.42;;;2.00;;
20527;SDS011;23612;50.894;10.700;2023-07-20T14:27:23;3.47;;;2.22;;
20527;SDS011;23612;50.894;10.700;2023-07-20T14:29:49;3.63;;;2.00;;
20527;SDS011;23612;50.894;10.700;2023-07-20T14:32:14;4.93;;;2.22;;
20527;SDS011;23612;50.894;10.700;2023-07-20T14:34:40;1.98;;;1.88;;
20527;SDS011;23612;50.894;10.700;2023-07-20T14:37:06;1.80;;;1.70;;
20527;SDS011;23612;50.894;10.700;2023-07-20T14:39:31;1.92;;;1.83;;
20527;SDS011;23612;50.894;10.700;2023-07-20T14:41:57;2.47;;;1.90;;